Terminal Aerodrome Forecast
Issued by NWS Wichita, KS

Home | Current Version | Previous Version | Graphics & Text | Print | Product List | Glossary On
Versions: 1 2 3 4 5 6 7 8 9 10 11 12 13 14 15 16 17 18 19 20 21
911
FTUS43 KICT 250958 AAB
TAFICT
TAF AMD
KICT 250958Z 2510/2606 08008KT P6SM VCTS SCT040 BKN070CB
      TEMPO 2510/2512 VRB15G25KT 3SM +TSRA SCT015 BKN040CB
     FM251400 08007KT P6SM SCT040 BKN070
     FM251800 15013KT P6SM SCT150 BKN200
     FM260000 15006KT P6SM SCT150=

USA.gov is the U.S. government's official web portal to all federal, state and local government web resources and services.